sensor_id;sensor_type;location;lat;lon;timestamp;noise_LAeq;noise_LA_min;noise_LA_max;noise_LA01;noise_LA95
69619;Laerm;57653;51.434;5.984;2022-09-01T00:00:11;32.39;26.63;45.96;;
69619;Laerm;57653;51.434;5.984;2022-09-01T00:00:23;28.30;27.02;35.12;;
69619;Laerm;57653;51.434;5.984;2022-09-01T00:00:38;29.12;27.62;39.17;;
69619;Laerm;57653;51.434;5.984;2022-09-01T00:00:51;28.75;27.61;29.79;;
69619;Laerm;57653;51.434;5.984;2022-09-01T00:01:02;37.87;27.90;46.48;;
69619;Laerm;57653;51.434;5.984;2022-09-01T00:01:14;58.69;44.40;63.49;;
69619;Laerm;57653;51.434;5.984;2022-09-01T00:01:30;60.64;57.01;63.51;;
69619;Laerm;57653;51.434;5.984;2022-09-01T00:01:41;52.19;39.72;58.85;;
69619;Laerm;57653;51.434;5.984;2022-09-01T00:01:53;37.71;32.49;43.04;;
69619;Laerm;57653;51.434;5.984;2022-09-01T00:02:04;30.97;28.73;39.01;;
69619;Laerm;57653;51.434;5.984;2022-09-01T00:02:17;30.44;28.05;42.86;;
69619;Laerm;57653;51.434;5.984;2022-09-01T00:02:28;29.52;27.71;38.25;;
69619;Laerm;57653;51.434;5.984;2022-09-01T00:02:38;28.77;27.27;34.75;;
69619;Laerm;57653;51.434;5.984;2022-09-01T00:02:55;29.80;27.20;47.74;;
69619;Laerm;57653;51.434;5.984;2022-09-01T00:03:05;28.69;26.92;39.57;;
69619;Laerm;57653;51.434;5.984;2022-09-01T00:03:16;28.45;26.81;38.62;;
69619;Laerm;57653;51.434;5.984;2022-09-01T00:03:27;29.07;26.65;46.09;;
69619;Laerm;57653;51.434;5.984;2022-09-01T00:03:38;28.82;26.89;40.42;;
69619;Laerm;57653;51.434;5.984;2022-09-01T00:03:49;29.83;26.87;45.62;;
69619;Laerm;57653;51.434;5.984;2022-09-01T00:04:01;28.37;26.76;34.98;;
69619;Laerm;57653;51.434;5.984;2022-09-01T00:04:13;28.32;26.90;34.37;;
69619;Laerm;57653;51.434;5.984;2022-09-01T00:04:25;28.36;27.02;35.51;;
69619;Laerm;57653;51.434;5.984;2022-09-01T00:04:36;28.99;26.87;41.95;;
69619;Laerm;57653;51.434;5.984;2022-09-01T00:04:56;29.44;26.92;46.67;;
69619;Laerm;57653;51.434;5.984;2022-09-01T00:05:07;28.89;26.67;45.78;;
69619;Laerm;57653;51.434;5.984;2022-09-01T00:05:18;29.20;26.80;44.37;;
69619;Laerm;57653;51.434;5.984;2022-09-01T00:05:28;27.83;26.67;30.37;;
69619;Laerm;57653;51.434;5.984;2022-09-01T00:05:40;29.39;26.42;46.37;;
69619;Laerm;57653;51.434;5.984;2022-09-01T00:05:51;28.61;27.02;40.36;;
69619;Laerm;57653;51.434;5.984;2022-09-01T00:06:04;28.14;26.57;33.51;;
69619;Laerm;57653;51.434;5.984;2022-09-01T00:06:21;28.84;27.10;38.78;;
69619;Laerm;57653;51.434;5.984;2022-09-01T00:06:35;28.45;26.97;41.05;;
69619;Laerm;57653;51.434;5.984;2022-09-01T00:06:49;30.14;26.66;47.00;;
69619;Laerm;57653;51.434;5.984;2022-09-01T00:07:00;29.00;26.91;41.04;;
69619;Laerm;57653;51.434;5.984;2022-09-01T00:07:11;30.74;27.15;48.82;;
69619;Laerm;57653;51.434;5.984;2022-09-01T00:07:22;28.46;26.81;35.89;;
69619;Laerm;57653;51.434;5.984;2022-09-01T00:07:32;29.20;26.81;46.07;;
69619;Laerm;57653;51.434;5.984;2022-09-01T00:07:45;28.13;26.88;32.57;;
69619;Laerm;57653;51.434;5.984;2022-09-01T00:07:55;28.62;26.74;40.43;;
69619;Laerm;57653;51.434;5.984;2022-09-01T00:08:06;28.50;26.76;40.02;;
69619;Laerm;57653;51.434;5.984;2022-09-01T00:08:16;29.79;26.59;45.51;;
69619;Laerm;57653;51.434;5.984;2022-09-01T00:08:28;27.96;26.67;31.36;;
69619;Laerm;57653;51.434;5.984;2022-09-01T00:08:39;27.74;26.50;32.61;;
69619;Laerm;57653;51.434;5.984;2022-09-01T00:08:49;30.29;26.63;49.04;;
69619;Laerm;57653;51.434;5.984;2022-09-01T00:09:08;29.09;26.63;46.83;;
69619;Laerm;57653;51.434;5.984;2022-09-01T00:09:19;29.63;25.87;48.75;;
69619;Laerm;57653;51.434;5.984;2022-09-01T00:09:30;29.56;26.70;44.72;;
69619;Laerm;57653;51.434;5.984;2022-09-01T00:09:40;33.42;26.56;55.94;;
69619;Laerm;57653;51.434;5.984;2022-09-01T00:09:51;28.27;26.51;41.54;;
69619;Laerm;57653;51.434;5.984;2022-09-01T00:10:03;27.57;26.33;28.58;;
69619;Laerm;57653;51.434;5.984;2022-09-01T00:10:14;27.95;26.33;36.07;;
69619;Laerm;57653;51.434;5.984;2022-09-01T00:10:25;28.54;26.69;39.11;;
69619;Laerm;57653;51.434;5.984;2022-09-01T00:10:35;28.38;26.83;37.46;;
69619;Laerm;57653;51.434;5.984;2022-09-01T00:10:48;30.12;26.17;46.11;;
69619;Laerm;57653;51.434;5.984;2022-09-01T00:10:58;28.94;26.89;39.63;;
69619;Laerm;57653;51.434;5.984;2022-09-01T00:11:09;37.03;28.40;46.47;;
69619;Laerm;57653;51.434;5.984;2022-09-01T00:11:20;57.85;43.60;64.11;;
69619;Laerm;57653;51.434;5.984;2022-09-01T00:11:30;60.89;58.60;64.02;;
69619;Laerm;57653;51.434;5.984;2022-09-01T00:11:49;54.96;42.42;60.76;;
69619;Laerm;57653;51.434;5.984;2022-09-01T00:12:00;39.38;31.45;46.39;;
69619;Laerm;57653;51.434;5.984;2022-09-01T00:12:10;31.47;28.72;34.57;;
69619;Laerm;57653;51.434;5.984;2022-09-01T00:12:21;30.41;28.18;32.71;;
69619;Laerm;57653;51.434;5.984;2022-09-01T00:12:34;29.60;27.93;32.37;;
69619;Laerm;57653;51.434;5.984;2022-09-01T00:12:51;30.88;27.63;41.22;;
69619;Laerm;57653;51.434;5.984;2022-09-01T00:13:01;28.54;26.68;38.65;;
69619;Laerm;57653;51.434;5.984;2022-09-01T00:13:16;30.17;26.60;48.82;;
69619;Laerm;57653;51.434;5.984;2022-09-01T00:13:26;28.27;27.01;32.24;;
69619;Laerm;57653;51.434;5.984;2022-09-01T00:13:36;29.28;26.87;43.10;;
69619;Laerm;57653;51.434;5.984;2022-09-01T00:13:47;27.70;26.03;31.75;;
69619;Laerm;57653;51.434;5.984;2022-09-01T00:13:59;27.82;26.48;36.59;;
69619;Laerm;57653;51.434;5.984;2022-09-01T00:14:10;27.97;26.67;36.26;;
69619;Laerm;57653;51.434;5.984;2022-09-01T00:14:23;28.59;26.04;44.08;;
69619;Laerm;57653;51.434;5.984;2022-09-01T00:14:35;28.18;26.57;39.87;;
69619;Laerm;57653;51.434;5.984;2022-09-01T00:14:46;28.48;26.62;43.10;;
69619;Laerm;57653;51.434;5.984;2022-09-01T00:14:56;28.94;26.62;46.12;;
69619;Laerm;57653;51.434;5.984;2022-09-01T00:15:08;28.94;26.70;43.81;;
69619;Laerm;57653;51.434;5.984;2022-09-01T00:15:19;29.30;26.68;46.14;;
69619;Laerm;57653;51.434;5.984;2022-09-01T00:15:30;28.15;26.66;35.95;;
69619;Laerm;57653;51.434;5.984;2022-09-01T00:15:40;28.34;26.90;31.13;;
69619;Laerm;57653;51.434;5.984;2022-09-01T00:15:51;28.97;26.86;40.01;;
69619;Laerm;57653;51.434;5.984;2022-09-01T00:16:01;28.63;26.96;39.21;;
69619;Laerm;57653;51.434;5.984;2022-09-01T00:16:13;27.90;26.71;29.28;;
69619;Laerm;57653;51.434;5.984;2022-09-01T00:16:26;28.29;26.89;39.27;;
69619;Laerm;57653;51.434;5.984;2022-09-01T00:16:36;28.65;26.60;45.05;;
69619;Laerm;57653;51.434;5.984;2022-09-01T00:16:46;27.82;26.58;28.98;;
69619;Laerm;57653;51.434;5.984;2022-09-01T00:16:58;28.74;26.42;43.33;;
69619;Laerm;57653;51.434;5.984;2022-09-01T00:17:09;27.90;26.18;37.14;;
69619;Laerm;57653;51.434;5.984;2022-09-01T00:17:19;29.37;26.26;48.26;;
69619;Laerm;57653;51.434;5.984;2022-09-01T00:17:30;28.55;26.60;42.32;;
69619;Laerm;57653;51.434;5.984;2022-09-01T00:17:40;28.35;26.74;40.83;;
69619;Laerm;57653;51.434;5.984;2022-09-01T00:17:53;28.17;26.70;39.22;;
69619;Laerm;57653;51.434;5.984;2022-09-01T00:18:03;29.31;26.25;45.33;;
69619;Laerm;57653;51.434;5.984;2022-09-01T00:18:13;30.28;26.68;47.53;;
69619;Laerm;57653;51.434;5.984;2022-09-01T00:18:24;27.74;26.49;31.46;;
69619;Laerm;57653;51.434;5.984;2022-09-01T00:18:45;29.30;26.59;47.13;;
69619;Laerm;57653;51.434;5.984;2022-09-01T00:18:58;27.81;26.47;36.51;;
69619;Laerm;57653;51.434;5.984;2022-09-01T00:19:09;28.25;26.61;41.27;;
69619;Laerm;57653;51.434;5.984;2022-09-01T00:19:21;29.12;26.63;46.87;;
69619;Laerm;57653;51.434;5.984;2022-09-01T00:19:31;28.11;26.57;38.61;;
69619;Laerm;57653;51.434;5.984;2022-09-01T00:19:42;28.32;26.64;43.48;;
69619;Laerm;57653;51.434;5.984;2022-09-01T00:19:53;27.79;26.19;33.45;;
69619;Laerm;57653;51.434;5.984;2022-09-01T00:20:05;28.45;26.54;39.18;;
69619;Laerm;57653;51.434;5.984;2022-09-01T00:20:15;28.74;26.30;42.82;;
69619;Laerm;57653;51.434;5.984;2022-09-01T00:20:26;28.55;26.80;39.01;;
69619;Laerm;57653;51.434;5.984;2022-09-01T00:20:36;29.53;26.79;47.14;;
69619;Laerm;57653;51.434;5.984;2022-09-01T00:20:48;28.22;26.47;34.75;;
69619;Laerm;57653;51.434;5.984;2022-09-01T00:20:58;29.96;26.97;46.16;;
69619;Laerm;57653;51.434;5.984;2022-09-01T00:21:09;28.80;27.10;33.58;;
69619;Laerm;57653;51.434;5.984;2022-09-01T00:21:22;43.21;28.76;52.75;;
69619;Laerm;57653;51.434;5.984;2022-09-01T00:21:34;58.70;50.80;61.99;;
69619;Laerm;57653;51.434;5.984;2022-09-01T00:21:45;59.46;57.32;63.05;;
69619;Laerm;57653;51.434;5.984;2022-09-01T00:21:57;55.49;43.49;61.06;;
69619;Laerm;57653;51.434;5.984;2022-09-01T00:22:09;40.64;32.67;47.17;;
69619;Laerm;57653;51.434;5.984;2022-09-01T00:22:19;32.33;29.91;39.10;;
69619;Laerm;57653;51.434;5.984;2022-09-01T00:22:29;31.89;29.73;36.20;;
69619;Laerm;57653;51.434;5.984;2022-09-01T00:22:40;32.19;28.48;43.75;;
69619;Laerm;57653;51.434;5.984;2022-09-01T00:22:50;29.75;27.50;44.28;;
69619;Laerm;57653;51.434;5.984;2022-09-01T00:23:01;29.12;26.88;37.13;;
69619;Laerm;57653;51.434;5.984;2022-09-01T00:23:11;28.61;26.93;32.56;;
69619;Laerm;57653;51.434;5.984;2022-09-01T00:23:22;29.07;27.03;39.36;;
69619;Laerm;57653;51.434;5.984;2022-09-01T00:23:34;29.40;27.34;43.29;;
69619;Laerm;57653;51.434;5.984;2022-09-01T00:23:44;28.72;26.86;38.04;;
69619;Laerm;57653;51.434;5.984;2022-09-01T00:23:55;28.44;26.67;40.79;;
69619;Laerm;57653;51.434;5.984;2022-09-01T00:24:09;28.79;26.80;41.54;;
69619;Laerm;57653;51.434;5.984;2022-09-01T00:24:20;29.21;26.77;45.45;;
69619;Laerm;57653;51.434;5.984;2022-09-01T00:24:31;29.29;26.98;46.27;;
69619;Laerm;57653;51.434;5.984;2022-09-01T00:24:43;28.19;26.91;31.34;;
69619;Laerm;57653;51.434;5.984;2022-09-01T00:24:54;28.20;26.63;37.68;;
69619;Laerm;57653;51.434;5.984;2022-09-01T00:25:04;27.96;26.69;36.66;;
69619;Laerm;57653;51.434;5.984;2022-09-01T00:25:17;27.82;26.27;31.49;;
69619;Laerm;57653;51.434;5.984;2022-09-01T00:25:29;29.45;26.47;47.73;;
69619;Laerm;57653;51.434;5.984;2022-09-01T00:25:39;28.17;26.85;35.51;;
69619;Laerm;57653;51.434;5.984;2022-09-01T00:25:50;29.38;26.96;45.19;;
69619;Laerm;57653;51.434;5.984;2022-09-01T00:26:01;28.04;26.57;35.01;;
69619;Laerm;57653;51.434;5.984;2022-09-01T00:26:11;28.02;26.54;34.72;;
69619;Laerm;57653;51.434;5.984;2022-09-01T00:26:22;28.58;26.72;35.53;;
69619;Laerm;57653;51.434;5.984;2022-09-01T00:26:47;28.28;26.58;42.06;;
69619;Laerm;57653;51.434;5.984;2022-09-01T00:26:57;28.37;26.79;39.62;;
69619;Laerm;57653;51.434;5.984;2022-09-01T00:27:08;28.00;26.39;34.02;;
69619;Laerm;57653;51.434;5.984;2022-09-01T00:27:20;28.96;26.58;47.24;;
69619;Laerm;57653;51.434;5.984;2022-09-01T00:27:30;27.80;26.43;30.73;;
69619;Laerm;57653;51.434;5.984;2022-09-01T00:27:41;27.79;26.57;32.57;;
69619;Laerm;57653;51.434;5.984;2022-09-01T00:27:52;28.20;26.43;42.03;;
69619;Laerm;57653;51.434;5.984;2022-09-01T00:28:03;28.08;26.59;40.50;;
69619;Laerm;57653;51.434;5.984;2022-09-01T00:28:14;27.70;26.44;36.90;;
69619;Laerm;57653;51.434;5.984;2022-09-01T00:28:24;27.66;26.42;29.90;;
69619;Laerm;57653;51.434;5.984;2022-09-01T00:28:35;27.76;26.68;28.65;;
69619;Laerm;57653;51.434;5.984;2022-09-01T00:28:47;27.73;26.72;28.71;;
69619;Laerm;57653;51.434;5.984;2022-09-01T00:28:58;27.90;26.70;31.44;;
69619;Laerm;57653;51.434;5.984;2022-09-01T00:29:09;27.85;26.34;32.86;;
69619;Laerm;57653;51.434;5.984;2022-09-01T00:29:20;28.65;26.23;42.94;;
69619;Laerm;57653;51.434;5.984;2022-09-01T00:29:31;27.94;26.42;38.61;;
69619;Laerm;57653;51.434;5.984;2022-09-01T00:29:41;27.71;25.90;33.56;;
69619;Laerm;57653;51.434;5.984;2022-09-01T00:29:51;28.31;26.60;42.56;;
69619;Laerm;57653;51.434;5.984;2022-09-01T00:30:02;27.84;26.57;34.01;;
69619;Laerm;57653;51.434;5.984;2022-09-01T00:30:12;27.68;26.50;29.02;;
69619;Laerm;57653;51.434;5.984;2022-09-01T00:30:23;29.28;26.57;46.11;;
69619;Laerm;57653;51.434;5.984;2022-09-01T00:30:33;28.72;26.47;42.63;;
69619;Laerm;57653;51.434;5.984;2022-09-01T00:30:43;28.27;26.94;31.55;;
69619;Laerm;57653;51.434;5.984;2022-09-01T00:30:54;29.79;26.93;44.21;;
69619;Laerm;57653;51.434;5.984;2022-09-01T00:31:04;28.69;26.90;30.43;;
69619;Laerm;57653;51.434;5.984;2022-09-01T00:31:16;31.07;27.68;46.45;;
69619;Laerm;57653;51.434;5.984;2022-09-01T00:31:29;36.91;28.54;44.95;;
69619;Laerm;57653;51.434;5.984;2022-09-01T00:31:39;59.63;42.27;66.51;;
69619;Laerm;57653;51.434;5.984;2022-09-01T00:31:50;61.55;59.06;65.12;;
69619;Laerm;57653;51.434;5.984;2022-09-01T00:32:01;60.81;56.07;63.70;;
69619;Laerm;57653;51.434;5.984;2022-09-01T00:32:11;50.77;39.80;58.25;;
69619;Laerm;57653;51.434;5.984;2022-09-01T00:32:22;38.47;33.04;43.50;;
69619;Laerm;57653;51.434;5.984;2022-09-01T00:32:32;31.59;29.18;34.62;;
69619;Laerm;57653;51.434;5.984;2022-09-01T00:32:42;30.44;28.91;31.93;;
69619;Laerm;57653;51.434;5.984;2022-09-01T00:32:55;31.46;28.66;44.97;;
69619;Laerm;57653;51.434;5.984;2022-09-01T00:33:19;45.94;32.46;55.49;;
69619;Laerm;57653;51.434;5.984;2022-09-01T00:33:29;63.20;51.16;66.71;;
69619;Laerm;57653;51.434;5.984;2022-09-01T00:33:39;65.08;63.10;67.22;;
69619;Laerm;57653;51.434;5.984;2022-09-01T00:33:50;64.15;55.06;67.76;;
69619;Laerm;57653;51.434;5.984;2022-09-01T00:34:00;47.60;36.02;55.72;;
69619;Laerm;57653;51.434;5.984;2022-09-01T00:34:10;34.53;32.10;37.65;;
69619;Laerm;57653;51.434;5.984;2022-09-01T00:34:21;31.86;28.54;36.34;;
69619;Laerm;57653;51.434;5.984;2022-09-01T00:34:44;28.63;26.92;31.31;;
69619;Laerm;57653;51.434;5.984;2022-09-01T00:34:54;29.56;26.64;48.21;;
69619;Laerm;57653;51.434;5.984;2022-09-01T00:35:04;28.06;26.87;37.95;;
69619;Laerm;57653;51.434;5.984;2022-09-01T00:35:15;28.23;26.38;40.07;;
69619;Laerm;57653;51.434;5.984;2022-09-01T00:35:41;28.28;26.75;32.86;;
69619;Laerm;57653;51.434;5.984;2022-09-01T00:35:52;28.03;26.81;29.07;;
69619;Laerm;57653;51.434;5.984;2022-09-01T00:36:02;28.08;26.83;33.24;;
69619;Laerm;57653;51.434;5.984;2022-09-01T00:36:14;28.98;27.15;37.11;;
69619;Laerm;57653;51.434;5.984;2022-09-01T00:36:25;29.77;27.00;38.04;;
69619;Laerm;57653;51.434;5.984;2022-09-01T00:36:47;28.34;27.10;31.45;;
69619;Laerm;57653;51.434;5.984;2022-09-01T00:36:58;28.76;27.09;41.12;;
69619;Laerm;57653;51.434;5.984;2022-09-01T00:37:08;28.23;26.97;36.12;;
69619;Laerm;57653;51.434;5.984;2022-09-01T00:37:18;27.88;26.70;35.50;;
69619;Laerm;57653;51.434;5.984;2022-09-01T00:37:29;27.72;26.36;33.22;;
69619;Laerm;57653;51.434;5.984;2022-09-01T00:37:39;27.69;26.15;29.32;;
69619;Laerm;57653;51.434;5.984;2022-09-01T00:37:50;27.58;26.40;28.68;;
69619;Laerm;57653;51.434;5.984;2022-09-01T00:38:00;28.55;26.96;35.16;;
69619;Laerm;57653;51.434;5.984;2022-09-01T00:38:10;28.38;27.00;36.38;;
69619;Laerm;57653;51.434;5.984;2022-09-01T00:38:20;28.73;27.02;43.41;;
69619;Laerm;57653;51.434;5.984;2022-09-01T00:38:31;29.03;27.37;39.03;;
69619;Laerm;57653;51.434;5.984;2022-09-01T00:38:42;37.45;28.48;44.77;;
69619;Laerm;57653;51.434;5.984;2022-09-01T00:38:53;59.79;43.32;66.68;;
69619;Laerm;57653;51.434;5.984;2022-09-01T00:39:05;59.93;57.40;63.12;;
69619;Laerm;57653;51.434;5.984;2022-09-01T00:39:16;56.45;45.50;60.36;;
69619;Laerm;57653;51.434;5.984;2022-09-01T00:39:26;39.72;33.82;46.15;;
69619;Laerm;57653;51.434;5.984;2022-09-01T00:39:36;32.90;30.01;40.05;;
69619;Laerm;57653;51.434;5.984;2022-09-01T00:39:47;31.57;29.15;38.58;;
69619;Laerm;57653;51.434;5.984;2022-09-01T00:39:57;30.99;28.41;43.76;;
69619;Laerm;57653;51.434;5.984;2022-09-01T00:40:08;29.65;27.68;31.57;;
69619;Laerm;57653;51.434;5.984;2022-09-01T00:40:19;29.53;27.52;33.45;;
69619;Laerm;57653;51.434;5.984;2022-09-01T00:40:29;29.26;27.10;32.24;;
69619;Laerm;57653;51.434;5.984;2022-09-01T00:40:40;28.86;27.16;30.71;;
69619;Laerm;57653;51.434;5.984;2022-09-01T00:40:51;28.34;26.76;30.24;;
69619;Laerm;57653;51.434;5.984;2022-09-01T00:41:10;27.88;26.61;29.27;;
69619;Laerm;57653;51.434;5.984;2022-09-01T00:41:22;27.87;26.48;29.02;;
69619;Laerm;57653;51.434;5.984;2022-09-01T00:41:33;27.88;26.77;30.32;;
69619;Laerm;57653;51.434;5.984;2022-09-01T00:41:43;28.02;26.62;29.72;;
69619;Laerm;57653;51.434;5.984;2022-09-01T00:41:53;28.01;26.89;29.24;;
69619;Laerm;57653;51.434;5.984;2022-09-01T00:42:04;27.99;26.81;29.27;;
69619;Laerm;57653;51.434;5.984;2022-09-01T00:42:14;27.79;26.57;30.01;;
69619;Laerm;57653;51.434;5.984;2022-09-01T00:42:25;28.63;26.90;42.73;;
69619;Laerm;57653;51.434;5.984;2022-09-01T00:42:36;27.79;26.50;30.57;;
69619;Laerm;57653;51.434;5.984;2022-09-01T00:42:46;27.76;26.02;28.82;;
69619;Laerm;57653;51.434;5.984;2022-09-01T00:42:59;27.66;26.57;31.22;;
69619;Laerm;57653;51.434;5.984;2022-09-01T00:43:10;27.75;26.47;35.31;;
69619;Laerm;57653;51.434;5.984;2022-09-01T00:43:34;28.14;26.29;39.61;;
69619;Laerm;57653;51.434;5.984;2022-09-01T00:43:49;28.15;26.34;42.01;;
69619;Laerm;57653;51.434;5.984;2022-09-01T00:44:02;27.93;26.46;41.51;;
69619;Laerm;57653;51.434;5.984;2022-09-01T00:44:15;27.61;26.50;31.67;;
69619;Laerm;57653;51.434;5.984;2022-09-01T00:44:28;27.69;26.13;37.13;;
69619;Laerm;57653;51.434;5.984;2022-09-01T00:44:38;28.24;26.54;42.53;;
69619;Laerm;57653;51.434;5.984;2022-09-01T00:44:48;27.51;26.58;29.54;;
69619;Laerm;57653;51.434;5.984;2022-09-01T00:45:12;27.79;26.45;34.12;;
69619;Laerm;57653;51.434;5.984;2022-09-01T00:45:22;28.30;26.25;41.33;;
69619;Laerm;57653;51.434;5.984;2022-09-01T00:45:32;29.73;26.58;45.15;;
69619;Laerm;57653;51.434;5.984;2022-09-01T00:45:43;28.55;26.84;40.65;;
69619;Laerm;57653;51.434;5.984;2022-09-01T00:45:53;29.73;26.69;42.74;;
69619;Laerm;57653;51.434;5.984;2022-09-01T00:46:04;29.52;27.42;37.80;;
69619;Laerm;57653;51.434;5.984;2022-09-01T00:46:17;51.58;32.62;58.07;;
69619;Laerm;57653;51.434;5.984;2022-09-01T00:46:29;59.95;56.81;64.87;;
69619;Laerm;57653;51.434;5.984;2022-09-01T00:46:42;59.32;42.87;65.46;;
69619;Laerm;57653;51.434;5.984;2022-09-01T00:46:54;39.34;33.13;44.93;;
69619;Laerm;57653;51.434;5.984;2022-09-01T00:47:05;32.70;29.06;35.34;;
69619;Laerm;57653;51.434;5.984;2022-09-01T00:47:15;31.68;28.12;34.14;;
69619;Laerm;57653;51.434;5.984;2022-09-01T00:47:26;29.90;27.89;39.78;;
69619;Laerm;57653;51.434;5.984;2022-09-01T00:47:36;29.23;26.51;39.23;;
69619;Laerm;57653;51.434;5.984;2022-09-01T00:47:47;29.28;27.31;32.81;;
69619;Laerm;57653;51.434;5.984;2022-09-01T00:47:59;28.62;27.07;30.00;;
69619;Laerm;57653;51.434;5.984;2022-09-01T00:48:09;29.18;26.93;44.52;;
69619;Laerm;57653;51.434;5.984;2022-09-01T00:48:19;29.57;27.19;45.18;;
69619;Laerm;57653;51.434;5.984;2022-09-01T00:48:30;28.08;27.04;29.46;;
69619;Laerm;57653;51.434;5.984;2022-09-01T00:48:41;30.22;26.77;48.93;;
69619;Laerm;57653;51.434;5.984;2022-09-01T00:48:56;29.04;26.94;46.03;;
69619;Laerm;57653;51.434;5.984;2022-09-01T00:49:10;28.08;26.92;33.45;;
69619;Laerm;57653;51.434;5.984;2022-09-01T00:49:33;28.31;26.43;37.22;;
69619;Laerm;57653;51.434;5.984;2022-09-01T00:49:46;29.46;26.48;45.15;;
69619;Laerm;57653;51.434;5.984;2022-09-01T00:49:57;28.63;26.68;42.76;;
69619;Laerm;57653;51.434;5.984;2022-09-01T00:50:07;29.40;26.39;46.71;;
69619;Laerm;57653;51.434;5.984;2022-09-01T00:50:19;28.50;26.55;42.61;;
69619;Laerm;57653;51.434;5.984;2022-09-01T00:50:29;27.97;26.79;36.82;;
69619;Laerm;57653;51.434;5.984;2022-09-01T00:50:40;27.87;26.53;31.81;;
69619;Laerm;57653;51.434;5.984;2022-09-01T00:50:51;29.46;26.45;44.50;;
69619;Laerm;57653;51.434;5.984;2022-09-01T00:51:01;28.17;26.40;40.49;;
69619;Laerm;57653;51.434;5.984;2022-09-01T00:51:12;27.99;26.74;34.67;;
69619;Laerm;57653;51.434;5.984;2022-09-01T00:51:22;28.01;26.52;37.62;;
69619;Laerm;57653;51.434;5.984;2022-09-01T00:51:33;30.17;26.19;46.37;;
69619;Laerm;57653;51.434;5.984;2022-09-01T00:51:46;28.43;26.42;43.34;;
69619;Laerm;57653;51.434;5.984;2022-09-01T00:52:01;27.96;26.34;40.91;;
69619;Laerm;57653;51.434;5.984;2022-09-01T00:52:18;27.62;26.25;30.98;;
69619;Laerm;57653;51.434;5.984;2022-09-01T00:52:31;27.76;26.43;39.18;;
69619;Laerm;57653;51.434;5.984;2022-09-01T00:52:45;27.57;26.35;29.42;;
69619;Laerm;57653;51.434;5.984;2022-09-01T00:52:57;27.65;26.27;33.85;;
69619;Laerm;57653;51.434;5.984;2022-09-01T00:53:07;27.58;26.25;28.53;;
69619;Laerm;57653;51.434;5.984;2022-09-01T00:53:18;28.10;26.26;43.01;;
69619;Laerm;57653;51.434;5.984;2022-09-01T00:53:29;27.62;26.51;29.25;;
69619;Laerm;57653;51.434;5.984;2022-09-01T00:53:41;27.62;26.34;32.27;;
69619;Laerm;57653;51.434;5.984;2022-09-01T00:53:53;28.41;26.31;45.28;;
69619;Laerm;57653;51.434;5.984;2022-09-01T00:54:06;28.98;26.32;48.16;;
69619;Laerm;57653;51.434;5.984;2022-09-01T00:54:19;28.58;26.64;46.23;;
69619;Laerm;57653;51.434;5.984;2022-09-01T00:54:32;28.79;26.49;47.09;;
69619;Laerm;57653;51.434;5.984;2022-09-01T00:54:45;28.63;26.47;46.39;;
69619;Laerm;57653;51.434;5.984;2022-09-01T00:54:57;27.52;26.38;28.53;;
69619;Laerm;57653;51.434;5.984;2022-09-01T00:55:16;27.58;26.53;28.73;;
69619;Laerm;57653;51.434;5.984;2022-09-01T00:55:31;27.89;26.41;38.73;;
69619;Laerm;57653;51.434;5.984;2022-09-01T00:55:42;27.67;26.46;34.85;;
69619;Laerm;57653;51.434;5.984;2022-09-01T00:55:52;27.79;26.35;37.20;;
69619;Laerm;57653;51.434;5.984;2022-09-01T00:56:03;27.91;26.31;40.72;;
69619;Laerm;57653;51.434;5.984;2022-09-01T00:56:15;27.54;26.28;30.99;;
69619;Laerm;57653;51.434;5.984;2022-09-01T00:56:26;28.12;26.26;42.82;;
69619;Laerm;57653;51.434;5.984;2022-09-01T00:56:36;29.95;26.34;46.83;;
69619;Laerm;57653;51.434;5.984;2022-09-01T00:56:48;28.24;26.53;42.71;;
69619;Laerm;57653;51.434;5.984;2022-09-01T00:56:59;27.54;26.54;28.65;;
69619;Laerm;57653;51.434;5.984;2022-09-01T00:57:10;27.62;26.18;32.08;;
69619;Laerm;57653;51.434;5.984;2022-09-01T00:57:21;27.80;26.36;32.88;;
69619;Laerm;57653;51.434;5.984;2022-09-01T00:57:32;28.73;26.54;45.01;;
69619;Laerm;57653;51.434;5.984;2022-09-01T00:57:49;27.60;26.17;31.31;;
69619;Laerm;57653;51.434;5.984;2022-09-01T00:58:00;27.76;26.51;37.03;;
69619;Laerm;57653;51.434;5.984;2022-09-01T00:58:12;28.53;26.62;42.03;;
69619;Laerm;57653;51.434;5.984;2022-09-01T00:58:22;28.09;26.36;40.70;;
69619;Laerm;57653;51.434;5.984;2022-09-01T00:58:35;27.64;26.40;28.96;;
69619;Laerm;57653;51.434;5.984;2022-09-01T00:58:46;28.43;26.63;44.53;;
69619;Laerm;57653;51.434;5.984;2022-09-01T00:58:56;28.87;26.87;45.50;;
69619;Laerm;57653;51.434;5.984;2022-09-01T00:59:08;28.04;26.29;33.66;;
69619;Laerm;57653;51.434;5.984;2022-09-01T00:59:25;28.34;26.95;35.87;;
69619;Laerm;57653;51.434;5.984;2022-09-01T00:59:37;28.29;26.60;40.72;;
69619;Laerm;57653;51.434;5.984;2022-09-01T00:59:56;28.21;26.40;40.34;;
69619;Laerm;57653;51.434;5.984;2022-09-01T01:00:11;30.16;26.73;41.86;;
69619;Laerm;57653;51.434;5.984;2022-09-01T01:00:26;32.31;26.85;40.91;;
69619;Laerm;57653;51.434;5.984;2022-09-01T01:00:38;28.84;27.16;36.77;;
69619;Laerm;57653;51.434;5.984;2022-09-01T01:00:51;31.00;27.67;47.68;;
69619;Laerm;57653;51.434;5.984;2022-09-01T01:01:02;32.02;28.62;44.48;;
69619;Laerm;57653;51.434;5.984;2022-09-01T01:01:13;47.57;32.92;57.15;;
69619;Laerm;57653;51.434;5.984;2022-09-01T01:01:23;63.19;54.69;66.40;;
69619;Laerm;57653;51.434;5.984;2022-09-01T01:01:43;64.55;61.91;67.64;;
69619;Laerm;57653;51.434;5.984;2022-09-01T01:01:54;56.03;32.61;66.87;;
69619;Laerm;57653;51.434;5.984;2022-09-01T01:02:04;36.75;31.82;43.34;;
69619;Laerm;57653;51.434;5.984;2022-09-01T01:02:14;59.57;41.46;66.62;;
69619;Laerm;57653;51.434;5.984;2022-09-01T01:02:25;63.85;60.79;67.15;;
69619;Laerm;57653;51.434;5.984;2022-09-01T01:02:36;59.73;47.99;64.11;;
69619;Laerm;57653;51.434;5.984;2022-09-01T01:02:48;44.16;37.72;52.23;;
69619;Laerm;57653;51.434;5.984;2022-09-01T01:02:58;36.00;31.07;40.96;;
69619;Laerm;57653;51.434;5.984;2022-09-01T01:03:10;34.32;30.03;44.07;;
69619;Laerm;57653;51.434;5.984;2022-09-01T01:03:20;33.25;29.42;45.50;;
69619;Laerm;57653;51.434;5.984;2022-09-01T01:03:33;31.48;28.76;36.34;;
69619;Laerm;57653;51.434;5.984;2022-09-01T01:03:44;30.54;28.30;33.81;;
69619;Laerm;57653;51.434;5.984;2022-09-01T01:03:56;29.92;27.65;41.54;;
69619;Laerm;57653;51.434;5.984;2022-09-01T01:04:07;29.01;27.32;30.84;;
69619;Laerm;57653;51.434;5.984;2022-09-01T01:04:24;28.74;26.95;30.99;;
69619;Laerm;57653;51.434;5.984;2022-09-01T01:04:35;28.26;27.10;33.47;;
69619;Laerm;57653;51.434;5.984;2022-09-01T01:04:46;28.39;27.08;34.68;;
69619;Laerm;57653;51.434;5.984;2022-09-01T01:04:56;28.14;26.86;29.54;;
69619;Laerm;57653;51.434;5.984;2022-09-01T01:05:08;28.69;26.73;43.99;;
69619;Laerm;57653;51.434;5.984;2022-09-01T01:05:20;28.99;27.34;37.65;;
69619;Laerm;57653;51.434;5.984;2022-09-01T01:05:33;28.30;26.78;32.44;;
69619;Laerm;57653;51.434;5.984;2022-09-01T01:05:46;28.50;27.18;29.77;;
69619;Laerm;57653;51.434;5.984;2022-09-01T01:06:08;36.89;27.52;46.73;;
69619;Laerm;57653;51.434;5.984;2022-09-01T01:06:19;60.28;44.84;64.60;;
69619;Laerm;57653;51.434;5.984;2022-09-01T01:06:35;62.11;56.42;64.78;;